createdAt,value
2023-02-24T00:01:51.320Z,86.30
2023-02-24T00:04:21.455Z,89.45
2023-02-24T00:06:49.855Z,93.07
2023-02-24T17:33:47.962Z,8.70
2023-02-24T17:36:16.210Z,5.05
2023-02-24T17:38:44.038Z,6.20
2023-02-24T17:41:12.034Z,8.07
2023-02-24T17:43:39.873Z,3.92
2023-02-24T17:46:07.837Z,2.95
2023-02-24T17:48:36.037Z,4.25
2023-02-24T17:51:05.401Z,5.65
2023-02-24T17:53:33.273Z,7.88
2023-02-24T17:56:05.849Z,3.45
2023-02-24T17:58:34.734Z,4.40
2023-02-24T18:01:03.105Z,4.30
2023-02-24T18:03:31.881Z,3.70
2023-02-24T18:06:00.497Z,3.58
2023-02-24T18:08:30.552Z,5.53
2023-02-24T18:10:59.072Z,4.90
2023-02-24T18:13:27.035Z,3.53
2023-02-24T18:15:55.278Z,6.05
2023-02-24T18:18:24.332Z,7.68
2023-02-24T18:20:52.228Z,5.18
2023-02-24T18:23:20.362Z,5.03
2023-02-24T18:25:49.570Z,5.15
2023-02-24T18:28:17.397Z,6.38
2023-02-24T18:30:45.281Z,3.40
2023-02-24T18:33:13.296Z,13.15
2023-02-24T18:35:41.218Z,6.75
2023-02-24T18:38:09.169Z,3.08
2023-02-24T18:40:37.060Z,7.82
2023-02-24T18:43:06.364Z,7.07
2023-02-24T18:45:34.202Z,4.68
2023-02-24T18:48:04.898Z,5.60
2023-02-24T18:50:33.747Z,3.17
2023-02-24T18:53:01.623Z,2.75
2023-02-24T18:55:29.802Z,3.97
2023-02-24T18:57:57.640Z,6.47
2023-02-24T19:00:27.023Z,5.43
2023-02-24T19:02:54.915Z,3.35
2023-02-24T19:05:22.892Z,9.95
2023-02-24T19:07:50.804Z,7.35
2023-02-24T19:10:19.276Z,11.02
2023-02-24T19:12:50.538Z,9.45
2023-02-24T19:15:18.890Z,12.40
2023-02-24T19:17:48.105Z,8.43
2023-02-24T19:20:16.308Z,12.43
2023-02-24T19:22:44.820Z,17.05
2023-02-24T19:25:12.662Z,12.32
2023-02-24T19:27:40.516Z,16.58
2023-02-24T19:30:09.912Z,17.42
2023-02-24T19:32:38.008Z,18.50
2023-02-24T19:35:08.503Z,21.33
2023-02-24T19:37:36.351Z,17.25
2023-02-24T19:40:04.682Z,18.23
2023-02-24T19:42:32.548Z,24.45
2023-02-24T19:45:00.438Z,20.15
2023-02-24T19:47:28.337Z,18.00
2023-02-24T19:49:56.204Z,18.92
2023-02-24T19:52:25.603Z,24.25
2023-02-24T19:54:54.254Z,25.38
2023-02-24T19:57:22.154Z,35.08
2023-02-24T19:59:52.353Z,31.20
2023-02-24T20:02:20.300Z,29.60
2023-02-24T20:04:48.279Z,26.65
2023-02-24T20:07:16.199Z,24.08
2023-02-24T20:09:45.447Z,26.88
2023-02-24T20:12:13.711Z,22.52
2023-02-24T20:14:41.589Z,26.40
2023-02-24T20:17:09.571Z,21.27
2023-02-24T20:19:37.468Z,21.30
2023-02-24T20:22:05.486Z,22.13
2023-02-24T20:24:35.677Z,21.65
2023-02-24T20:27:05.513Z,27.77
2023-02-24T20:29:35.124Z,24.00
2023-02-24T20:32:03.823Z,24.13
2023-02-24T20:34:31.913Z,25.88
2023-02-24T20:36:59.840Z,27.58
2023-02-24T20:39:27.714Z,25.40
2023-02-24T20:41:55.589Z,27.48
2023-02-24T20:44:24.927Z,28.90
2023-02-24T20:46:52.896Z,22.73
2023-02-24T20:49:20.765Z,23.20
2023-02-24T20:51:48.674Z,27.02
2023-02-24T20:54:16.682Z,33.20
2023-02-24T20:56:46.992Z,30.60
2023-02-24T20:59:16.275Z,31.35
2023-02-24T21:01:47.529Z,28.95
2023-02-24T21:04:17.814Z,31.00
2023-02-24T21:06:46.577Z,32.63
2023-02-24T21:09:14.622Z,33.22
2023-02-24T21:11:42.564Z,33.80
2023-02-24T21:14:15.717Z,36.80
2023-02-24T21:16:46.713Z,36.83
2023-02-24T21:19:14.941Z,36.00
2023-02-24T21:21:42.878Z,44.25
2023-02-24T21:24:10.883Z,39.38
2023-02-24T21:26:38.793Z,37.97
2023-02-24T21:29:06.712Z,36.85
2023-02-24T21:31:34.711Z,37.47
2023-02-24T21:34:04.074Z,37.63
2023-02-24T21:36:31.958Z,38.00
2023-02-24T21:39:00.923Z,35.78
2023-02-24T21:41:28.878Z,39.08
2023-02-24T21:43:57.133Z,42.22
2023-02-24T21:46:28.081Z,38.08
2023-02-24T21:48:57.464Z,45.67
2023-02-24T21:51:27.720Z,42.78
2023-02-24T21:53:56.016Z,49.35
2023-02-24T21:56:26.418Z,45.22
2023-02-24T21:58:57.824Z,44.47
2023-02-24T22:01:27.812Z,44.22
2023-02-24T22:03:56.572Z,42.50
2023-02-24T22:06:29.569Z,40.90
2023-02-24T22:08:58.989Z,51.17
2023-02-24T22:11:27.105Z,40.17
2023-02-24T22:13:55.035Z,48.15
2023-02-24T22:16:24.973Z,42.65
2023-02-24T22:18:55.209Z,48.22
2023-02-24T22:21:25.049Z,50.83
2023-02-24T22:23:55.671Z,53.80
2023-02-24T22:26:24.534Z,48.15
2023-02-24T22:28:53.892Z,50.42
2023-02-24T22:31:24.178Z,57.25
2023-02-24T22:33:52.202Z,50.22
2023-02-24T22:36:21.978Z,63.22
2023-02-24T22:38:50.000Z,54.58
2023-02-24T22:41:21.113Z,51.75
2023-02-24T22:43:49.517Z,70.75
2023-02-24T22:46:19.196Z,54.90
2023-02-24T22:48:47.698Z,57.95
2023-02-24T22:51:16.044Z,53.33
2023-02-24T22:53:47.342Z,54.63
2023-02-24T22:56:16.686Z,57.97
2023-02-24T22:58:46.277Z,57.75
2023-02-24T23:01:16.010Z,63.08
2023-02-24T23:03:46.033Z,51.83
2023-02-24T23:06:16.417Z,65.55
2023-02-24T23:08:46.081Z,59.33
2023-02-24T23:11:16.049Z,60.15
2023-02-24T23:13:47.774Z,57.22
2023-02-24T23:16:18.443Z,62.42
2023-02-24T23:18:50.714Z,60.85
2023-02-24T23:21:20.540Z,67.25
2023-02-24T23:23:48.808Z,60.25
2023-02-24T23:26:17.909Z,59.45
2023-02-24T23:28:47.136Z,59.25
2023-02-24T23:31:19.749Z,54.67
2023-02-24T23:33:47.921Z,59.20
2023-02-24T23:36:16.804Z,55.88
2023-02-24T23:38:44.708Z,61.80
2023-02-24T23:41:13.737Z,63.83
2023-02-24T23:43:42.302Z,59.95
2023-02-24T23:46:13.514Z,57.35
2023-02-24T23:48:41.972Z,54.78
2023-02-24T23:51:13.357Z,63.20
2023-02-24T23:53:42.872Z,63.58
2023-02-24T23:56:14.546Z,54.60
2023-02-24T23:58:42.517Z,67.53
